SCAR METAR and TAF weather

Enter ICAO airport designator
Station Type Date Time Source
SCAR METAR 2020/09/18 23:00 UTC NOAA

SCAR 182300Z 22005KT 9999 OVC025 16/12 Q1015


Station Type Date Time Source
SCAR Decoded METAR 2020/09/18 23:00 UTC NOAA

Arica, Chile (SCAR) 18-20S 070-20W 58M
Sep 18, 2020 - 07:00 PM EDT / 2020.09.18 2300 UTC
Wind: from the SW (220 degrees) at 6 MPH (5 KT):0
Visibility: greater than 7 mile(s):0
Sky conditions: overcast
Temperature: 60 F (16 C)
Dew Point: 53 F (12 C)
Relative Humidity: 77%
Pressure (altimeter): 29.97 in. Hg (1015 hPa)
ob: SCAR 182300Z 22005KT 9999 OVC025 16/12 Q1015
cycle: 23

Station Type Date Time Source
SCAR TAF 2020/09/19 00:00 UTC NOAA

TAF SCAR 182230Z 1900/1924 22004KT 9999 OVC025 TN16/1900Z TX18/1919Z
BECMG 1908/1910 32004KT
BECMG 1912/1914 FEW030
BECMG 1916/1918 22010KT CAVOK

Example: see airport list